Time;durP1;ratioP1;P1;durP2;ratioP2;P2;SDS_P1;SDS_P2;PMS_P1;PMS_P2;Temp;Humidity;BMP_temperature;BMP_pressure;BME280_temperature;BME280_humidity;BME280_pressure;Samples;Min_cycle;Max_cycle;Signal;HPM_P1;HPM_P2
2022/03/09 00:01:10;;;;;;;3.50;1.67;;;18.60;45.00;;;;;;5059445;28;20172;-85
2022/03/09 00:03:36;;;;;;;4.28;1.50;;;18.50;45.30;;;;;;5075945;28;20153;-85
2022/03/09 00:06:01;;;;;;;4.55;1.48;;;18.50;45.50;;;;;;5075787;28;20161;-85
2022/03/09 00:08:28;;;;;;;3.80;1.58;;;18.50;45.00;;;;;;5059083;28;20161;-85
2022/03/09 00:10:56;;;;;;;5.28;1.80;;;18.50;45.10;;;;;;5041654;28;20576;-85
2022/03/09 00:13:23;;;;;;;2.53;1.60;;;18.50;44.90;;;;;;5041505;28;20185;-85
2022/03/09 00:15:50;;;;;;;3.90;1.75;;;18.40;45.30;;;;;;5041680;28;20189;-86
2022/03/09 00:18:15;;;;;;;3.13;1.95;;;18.50;45.40;;;;;;5024714;28;20524;-85
2022/03/09 00:20:41;;;;;;;4.15;1.92;;;18.50;45.30;;;;;;5076785;28;20153;-87
2022/03/09 00:23:07;;;;;;;3.45;1.52;;;18.40;45.00;;;;;;5059207;28;20169;-86
2022/03/09 00:25:32;;;;;;;5.78;2.03;;;18.50;45.30;;;;;;5058802;28;20161;-85
2022/03/09 00:27:58;;;;;;;4.93;1.75;;;18.50;45.10;;;;;;5075753;28;20157;-86
2022/03/09 00:30:24;;;;;;;3.30;1.60;;;18.50;44.90;;;;;;5041822;28;20288;-86
2022/03/09 00:32:49;;;;;;;4.40;1.40;;;18.50;45.00;;;;;;5042223;28;20168;-85
2022/03/09 00:35:15;;;;;;;4.78;1.63;;;18.40;45.00;;;;;;5058635;28;20224;-85
2022/03/09 00:37:41;;;;;;;2.88;1.60;;;18.50;45.60;;;;;;5058475;28;20177;-85
2022/03/09 00:40:07;;;;;;;3.00;1.50;;;18.50;45.40;;;;;;5058747;28;20208;-86
2022/03/09 00:42:36;;;;;;;2.83;1.50;;;18.40;45.00;;;;;;5058611;28;20162;-85
2022/03/09 00:45:02;;;;;;;2.95;1.52;;;18.40;45.50;;;;;;5041926;28;20165;-85
2022/03/09 00:47:29;;;;;;;3.20;1.38;;;18.40;45.10;;;;;;5058506;28;20266;-87
2022/03/09 00:49:56;;;;;;;3.20;1.65;;;18.40;45.30;;;;;;5057628;28;20212;-88
2022/03/09 00:52:22;;;;;;;4.15;1.90;;;18.40;45.30;;;;;;5024409;28;20588;-85
2022/03/09 00:54:49;;;;;;;2.33;1.40;;;18.40;45.50;;;;;;5075058;28;20189;-87
2022/03/09 00:57:17;;;;;;;5.85;1.63;;;18.40;45.60;;;;;;5023446;28;20227;-85
2022/03/09 00:59:44;;;;;;;4.65;1.52;;;18.40;45.30;;;;;;5057402;28;20666;-84
2022/03/09 01:02:11;;;;;;;3.00;1.80;;;18.30;45.30;;;;;;5040450;28;20193;-86
2022/03/09 01:04:38;;;;;;;3.55;1.70;;;18.40;45.30;;;;;;5056884;28;20576;-86
2022/03/09 01:07:05;;;;;;;3.25;1.80;;;18.40;45.10;;;;;;5040727;28;20185;-86
2022/03/09 01:09:32;;;;;;;4.50;1.70;;;18.40;45.10;;;;;;5057031;28;20679;-85
2022/03/09 01:11:59;;;;;;;3.17;1.63;;;18.40;45.30;;;;;;5040384;28;20192;-85
2022/03/09 01:14:25;;;;;;;2.78;1.60;;;18.30;45.50;;;;;;5024038;28;20573;-86
2022/03/09 01:16:52;;;;;;;6.03;2.17;;;18.40;45.50;;;;;;5058015;28;20157;-87
2022/03/09 01:19:19;;;;;;;4.57;1.90;;;18.30;45.70;;;;;;5040321;28;20540;-85
2022/03/09 01:21:45;;;;;;;3.25;1.75;;;18.30;45.40;;;;;;5040728;28;20267;-86
2022/03/09 01:24:11;;;;;;;3.60;1.65;;;18.30;45.90;;;;;;5040325;28;20246;-84
2022/03/09 01:26:37;;;;;;;2.65;1.73;;;18.30;45.30;;;;;;5040954;28;20269;-85
2022/03/09 01:29:03;;;;;;;4.20;1.75;;;18.30;45.50;;;;;;5057656;28;20193;-85
2022/03/09 01:31:29;;;;;;;1.77;1.40;;;18.30;45.50;;;;;;5042100;28;20542;-85
2022/03/09 01:33:54;;;;;;;4.25;1.67;;;18.40;45.30;;;;;;5076061;28;20154;-84
2022/03/09 01:36:20;;;;;;;2.55;1.75;;;18.30;45.60;;;;;;5059180;28;20221;-85
2022/03/09 01:38:46;;;;;;;4.53;1.88;;;18.30;45.50;;;;;;5042816;28;20624;-84
2022/03/09 01:41:11;;;;;;;4.90;1.83;;;18.30;45.60;;;;;;5061571;28;20169;-88
2022/03/09 01:43:38;;;;;;;4.20;1.50;;;18.30;45.60;;;;;;5048191;28;20166;-85
2022/03/09 01:46:04;;;;;;;5.07;1.90;;;18.30;45.50;;;;;;5048765;28;20208;-85
2022/03/09 01:48:30;;;;;;;3.25;1.90;;;18.30;45.70;;;;;;5064700;28;20154;-86
2022/03/09 01:50:55;;;;;;;3.63;1.92;;;18.20;45.90;;;;;;5065046;28;20205;-86
2022/03/09 01:53:21;;;;;;;3.92;1.70;;;18.20;45.90;;;;;;5045945;28;20174;-86
2022/03/09 01:55:47;;;;;;;4.38;1.48;;;18.20;45.70;;;;;;5050290;28;20165;-85
2022/03/09 01:58:14;;;;;;;3.65;1.40;;;18.20;45.70;;;;;;5085206;28;20211;-84
2022/03/09 02:00:40;;;;;;;4.40;1.60;;;18.20;45.70;;;;;;5085719;28;20245;-85
2022/03/09 02:03:11;;;;;;;2.60;1.60;;;18.20;45.40;;;;;;5078196;28;20154;-85
2022/03/09 02:05:37;;;;;;;3.05;1.35;;;18.20;45.90;;;;;;5023257;28;20228;-86
2022/03/09 02:10:47;;;;;;;3.22;1.48;;;18.20;45.70;;;;;;5074543;28;20223;-87
2022/03/09 02:13:12;;;;;;;3.85;1.67;;;18.20;45.70;;;;;;5073421;28;20182;-85
2022/03/09 02:15:38;;;;;;;3.03;1.50;;;18.20;45.60;;;;;;5073404;28;20150;-87
2022/03/09 02:18:04;;;;;;;2.45;1.48;;;18.10;45.80;;;;;;5040043;28;20173;-87
2022/03/09 02:20:30;;;;;;;4.50;1.80;;;18.20;45.40;;;;;;5056694;28;20208;-85
2022/03/09 02:22:56;;;;;;;2.30;1.50;;;18.20;45.90;;;;;;5056633;28;20166;-85
2022/03/09 02:25:21;;;;;;;3.85;1.63;;;18.20;45.30;;;;;;5040063;28;20172;-85
2022/03/09 02:27:47;;;;;;;3.58;1.80;;;18.20;45.60;;;;;;5039931;28;20169;-87
2022/03/09 02:30:17;;;;;;;3.08;1.60;;;18.20;45.70;;;;;;5056733;28;20216;-87
2022/03/09 02:32:46;;;;;;;4.55;1.95;;;18.20;45.80;;;;;;5056501;28;20157;-87
2022/03/09 02:35:13;;;;;;;3.75;1.80;;;18.20;45.70;;;;;;5038542;28;20216;-86
2022/03/09 02:37:38;;;;;;;3.30;1.40;;;18.20;45.50;;;;;;5055305;28;20177;-84
2022/03/09 02:40:08;;;;;;;2.40;1.60;;;18.20;45.50;;;;;;5055421;28;20242;-86
2022/03/09 02:42:35;;;;;;;5.93;1.42;;;18.20;45.90;;;;;;5038899;28;20207;-86
2022/03/09 02:45:01;;;;;;;5.10;1.90;;;18.20;45.90;;;;;;5038284;28;20275;-85
2022/03/09 02:47:31;;;;;;;2.60;1.40;;;18.10;46.10;;;;;;5071863;28;20261;-86
2022/03/09 02:49:57;;;;;;;4.15;1.50;;;18.10;46.00;;;;;;5038397;28;20691;-84
2022/03/09 02:52:24;;;;;;;6.53;1.90;;;18.10;45.80;;;;;;5055023;28;20154;-87
2022/03/09 02:54:50;;;;;;;4.93;1.70;;;18.20;45.80;;;;;;5037781;28;20181;-86
2022/03/09 02:57:16;;;;;;;2.53;1.50;;;18.10;45.80;;;;;;5054951;28;20188;-87
2022/03/09 02:59:41;;;;;;;2.75;1.50;;;18.10;45.80;;;;;;5071665;28;20165;-85
2022/03/09 03:02:08;;;;;;;2.78;1.45;;;18.10;45.90;;;;;;5055045;28;20169;-86
2022/03/09 03:04:35;;;;;;;2.65;1.65;;;18.10;45.80;;;;;;5038096;28;20192;-86
2022/03/09 03:07:00;;;;;;;4.32;1.98;;;18.10;46.00;;;;;;5052312;28;20193;-85
2022/03/09 03:09:27;;;;;;;3.03;1.52;;;18.10;45.60;;;;;;5072200;28;20234;-85
2022/03/09 03:11:54;;;;;;;1.90;1.23;;;18.10;45.80;;;;;;5054826;28;20208;-86
2022/03/09 03:14:20;;;;;;;4.15;1.42;;;18.10;45.70;;;;;;5055687;28;20252;-84
2022/03/09 03:16:45;;;;;;;2.30;1.50;;;18.10;46.00;;;;;;5072273;28;20180;-87
2022/03/09 03:19:11;;;;;;;3.15;1.60;;;18.10;45.80;;;;;;5038405;28;20698;-87
2022/03/09 03:21:37;;;;;;;3.90;1.52;;;18.10;45.50;;;;;;5072875;28;20210;-85
2022/03/09 03:24:02;;;;;;;4.32;1.48;;;18.10;45.80;;;;;;5055504;28;20210;-85
2022/03/09 03:26:29;;;;;;;3.95;1.67;;;18.10;45.80;;;;;;5055639;28;20166;-84
2022/03/09 03:28:55;;;;;;;2.97;1.42;;;18.10;46.00;;;;;;5038838;28;20172;-88
2022/03/09 03:31:21;;;;;;;4.05;1.77;;;18.10;45.70;;;;;;5038826;28;20169;-86
2022/03/09 03:33:50;;;;;;;1.85;1.42;;;18.10;46.00;;;;;;5055591;28;20154;-86
2022/03/09 03:36:19;;;;;;;3.72;1.60;;;18.10;45.90;;;;;;5037735;28;20320;-87
2022/03/09 03:38:44;;;;;;;1.52;1.42;;;18.10;46.00;;;;;;5054593;28;20211;-87
2022/03/09 03:41:13;;;;;;;3.10;1.70;;;18.10;45.80;;;;;;5055909;28;20177;-88
2022/03/09 03:43:41;;;;;;;3.35;1.52;;;18.10;46.20;;;;;;5038299;28;20185;-86
2022/03/09 03:46:09;;;;;;;3.45;1.70;;;18.00;45.80;;;;;;5054717;28;20193;-85
2022/03/09 03:48:37;;;;;;;2.78;1.60;;;18.00;46.40;;;;;;5037732;28;20188;-87
2022/03/09 03:51:05;;;;;;;2.83;1.50;;;18.10;45.80;;;;;;5054368;28;20758;-85
2022/03/09 03:53:33;;;;;;;3.85;1.65;;;18.00;46.00;;;;;;5021357;28;20192;-85
2022/03/09 03:56:01;;;;;;;3.75;1.40;;;18.10;45.90;;;;;;5037968;28;20309;-86
2022/03/09 03:58:29;;;;;;;4.00;1.52;;;18.10;46.10;;;;;;5021692;28;20186;-84
2022/03/09 04:00:56;;;;;;;3.88;1.60;;;18.00;45.70;;;;;;5037958;28;20192;-86
2022/03/09 04:03:22;;;;;;;2.72;1.30;;;18.10;45.90;;;;;;5021382;28;20235;-85
2022/03/09 04:05:47;;;;;;;2.03;1.20;;;18.00;45.90;;;;;;5055066;28;20215;-87
2022/03/09 04:08:13;;;;;;;2.95;1.65;;;18.00;45.90;;;;;;5072961;28;20639;-86
2022/03/09 04:10:39;;;;;;;4.10;1.65;;;18.10;46.00;;;;;;5071709;28;20238;-86
2022/03/09 04:13:04;;;;;;;3.33;1.75;;;18.10;46.00;;;;;;5071859;28;20302;-86
2022/03/09 04:15:31;;;;;;;3.60;1.58;;;18.00;46.10;;;;;;5072983;28;20203;-87
2022/03/09 04:17:58;;;;;;;2.83;1.70;;;18.10;46.10;;;;;;5071846;28;20146;-85
2022/03/09 04:20:25;;;;;;;4.57;1.70;;;18.00;45.90;;;;;;5020928;28;20319;-88
2022/03/09 04:22:52;;;;;;;2.90;1.50;;;18.00;46.20;;;;;;5021109;28;20208;-84
2022/03/09 04:25:19;;;;;;;2.65;1.58;;;17.90;45.50;;;;;;5037606;28;20639;-87
2022/03/09 04:27:45;;;;;;;2.58;1.40;;;18.00;45.80;;;;;;5037572;28;20662;-85
2022/03/09 04:30:12;;;;;;;3.13;1.60;;;18.00;46.20;;;;;;5054105;28;20213;-86
2022/03/09 04:32:39;;;;;;;2.58;1.60;;;18.00;46.20;;;;;;5058010;28;20170;-86
2022/03/09 04:35:05;;;;;;;2.03;1.33;;;18.00;45.70;;;;;;5075110;28;20228;-85
2022/03/09 04:37:31;;;;;;;2.38;1.60;;;18.00;46.10;;;;;;5058474;28;20165;-85
2022/03/09 04:39:57;;;;;;;3.85;2.00;;;18.00;46.10;;;;;;5058617;28;20163;-86
2022/03/09 04:42:23;;;;;;;3.80;1.63;;;18.00;45.70;;;;;;5058531;28;20169;-85
2022/03/09 04:44:48;;;;;;;3.60;1.63;;;18.10;46.30;;;;;;5075033;28;20207;-87
2022/03/09 04:47:14;;;;;;;2.92;1.38;;;18.00;45.80;;;;;;5058590;28;20164;-87
2022/03/09 04:49:40;;;;;;;3.15;1.50;;;18.00;46.10;;;;;;5074946;28;20228;-85
2022/03/09 04:52:06;;;;;;;2.40;1.42;;;18.10;45.80;;;;;;5074852;28;20169;-87
2022/03/09 04:54:32;;;;;;;1.77;1.20;;;18.00;46.00;;;;;;5058687;28;20688;-84
2022/03/09 04:56:58;;;;;;;4.28;1.50;;;18.00;46.00;;;;;;5041800;28;20170;-87
2022/03/09 04:59:25;;;;;;;3.20;1.65;;;18.00;46.20;;;;;;5058080;28;20520;-86
2022/03/09 05:01:52;;;;;;;3.13;1.70;;;18.00;46.40;;;;;;5075717;28;20210;-85
2022/03/09 05:04:18;;;;;;;3.17;1.60;;;17.90;46.10;;;;;;5024065;28;20188;-86
2022/03/09 05:06:44;;;;;;;4.05;1.83;;;18.00;45.90;;;;;;5074831;28;20519;-86
2022/03/09 05:09:09;;;;;;;2.80;1.33;;;18.00;46.20;;;;;;5057691;28;20204;-86
2022/03/09 05:11:35;;;;;;;3.22;1.60;;;18.00;46.30;;;;;;5041873;28;20158;-87
2022/03/09 05:14:00;;;;;;;1.80;1.50;;;18.00;46.00;;;;;;5058033;28;20521;-87
2022/03/09 05:16:26;;;;;;;2.58;1.40;;;18.00;46.30;;;;;;5057885;28;20256;-86
2022/03/09 05:18:52;;;;;;;3.38;1.48;;;17.90;45.70;;;;;;5041398;28;20252;-84
2022/03/09 05:21:17;;;;;;;4.82;2.10;;;18.00;46.20;;;;;;5057863;28;20192;-85
2022/03/09 05:23:43;;;;;;;3.63;1.70;;;17.90;46.20;;;;;;5041089;28;20525;-85
2022/03/09 05:26:09;;;;;;;2.38;1.40;;;18.00;46.60;;;;;;5074477;28;20181;-86
2022/03/09 05:28:35;;;;;;;3.63;1.70;;;18.00;46.20;;;;;;5041057;28;20166;-88
2022/03/09 05:31:02;;;;;;;2.85;1.90;;;18.00;45.80;;;;;;5056919;28;20576;-85
2022/03/09 05:33:29;;;;;;;3.30;1.40;;;18.00;45.40;;;;;;5023695;28;20181;-88
2022/03/09 05:35:56;;;;;;;2.33;1.40;;;18.00;45.80;;;;;;5073942;28;20734;-86
2022/03/09 05:38:24;;;;;;;1.75;1.20;;;18.10;45.90;;;;;;5040256;28;20188;-86
2022/03/09 05:40:53;;;;;;;2.92;1.60;;;18.00;45.60;;;;;;5056773;28;20200;-85
2022/03/09 05:43:20;;;;;;;2.60;1.58;;;18.00;45.50;;;;;;5056399;28;20263;-86
2022/03/09 05:45:45;;;;;;;2.25;1.52;;;18.00;45.80;;;;;;5023563;28;20595;-85
2022/03/09 05:48:11;;;;;;;5.22;1.58;;;18.00;45.70;;;;;;5074021;28;20612;-85
2022/03/09 05:50:37;;;;;;;3.92;1.63;;;18.00;45.90;;;;;;5057125;28;20189;-88
2022/03/09 05:53:03;;;;;;;2.00;1.38;;;18.00;45.60;;;;;;5057549;28;20154;-86
2022/03/09 05:55:29;;;;;;;3.75;1.40;;;18.00;44.80;;;;;;5041118;28;20215;-86
2022/03/09 05:57:55;;;;;;;2.67;1.50;;;18.10;45.30;;;;;;5039897;28;20640;-86
2022/03/09 06:00:30;;;;;;;1.90;1.40;;;18.20;44.80;;;;;;5056966;28;20177;-85
2022/03/09 06:03:00;;;;;;;1.73;1.40;;;18.20;44.70;;;;;;5058699;28;20256;-87
2022/03/09 06:05:28;;;;;;;3.05;1.95;;;18.20;44.60;;;;;;5059101;28;20208;-85
2022/03/09 06:07:54;;;;;;;3.38;1.70;;;18.30;44.90;;;;;;5040378;28;20196;-87
2022/03/09 06:10:22;;;;;;;4.25;1.40;;;18.30;44.70;;;;;;5073500;28;20185;-85
2022/03/09 06:12:49;;;;;;;2.10;1.48;;;18.20;44.60;;;;;;5039802;28;20184;-87
2022/03/09 06:15:19;;;;;;;2.17;1.23;;;18.30;44.40;;;;;;5039340;28;20181;-86
2022/03/09 06:17:48;;;;;;;3.45;1.58;;;18.30;44.70;;;;;;5042575;28;20272;-85
2022/03/09 06:20:17;;;;;;;3.50;1.60;;;18.30;44.60;;;;;;5041243;28;20212;-87
2022/03/09 06:22:48;;;;;;;2.85;1.55;;;18.30;44.60;;;;;;5024803;28;20208;-86
2022/03/09 06:25:16;;;;;;;2.65;1.35;;;18.20;44.60;;;;;;5058241;28;20180;-87
2022/03/09 06:27:45;;;;;;;2.50;1.60;;;18.30;44.10;;;;;;5041524;28;20215;-87
2022/03/09 06:30:13;;;;;;;2.92;1.42;;;18.30;44.20;;;;;;5041712;28;20209;-88
2022/03/09 06:32:41;;;;;;;2.40;1.20;;;18.40;44.50;;;;;;5058355;28;20216;-87
2022/03/09 06:35:07;;;;;;;2.00;1.23;;;18.30;44.30;;;;;;5057820;28;20213;-86
2022/03/09 06:37:33;;;;;;;4.00;1.40;;;18.40;43.80;;;;;;5058647;28;20169;-87
2022/03/09 06:40:00;;;;;;;2.40;1.40;;;18.40;44.00;;;;;;5057886;28;20616;-85
2022/03/09 06:42:27;;;;;;;3.05;1.38;;;18.40;44.00;;;;;;5040804;28;20192;-86
2022/03/09 06:44:54;;;;;;;2.45;1.83;;;18.40;43.80;;;;;;5041001;28;20647;-87
2022/03/09 06:47:19;;;;;;;2.78;1.33;;;18.40;43.80;;;;;;5075701;28;20161;-86
2022/03/09 06:49:46;;;;;;;1.95;1.23;;;18.40;43.80;;;;;;5073517;28;20177;-86
2022/03/09 06:52:13;;;;;;;2.00;1.40;;;18.40;43.60;;;;;;5040889;28;20196;-86
2022/03/09 06:54:40;;;;;;;1.90;1.40;;;18.50;43.70;;;;;;5038592;28;20189;-86
2022/03/09 06:57:06;;;;;;;1.98;1.50;;;18.50;44.00;;;;;;5023139;28;20200;-85
2022/03/09 06:59:33;;;;;;;2.40;1.30;;;18.50;43.70;;;;;;5057561;28;20207;-86
2022/03/09 07:02:00;;;;;;;1.58;1.27;;;18.50;43.70;;;;;;5039356;28;20620;-85
2022/03/09 07:04:29;;;;;;;2.78;1.58;;;18.50;43.50;;;;;;5075471;28;20162;-86
2022/03/09 07:06:58;;;;;;;2.03;1.42;;;18.50;44.50;;;;;;5055770;28;20246;-85
2022/03/09 07:09:27;;;;;;;2.08;1.42;;;18.60;44.60;;;;;;5056162;28;20683;-86
2022/03/09 07:11:57;;;;;;;1.85;1.35;;;18.60;44.30;;;;;;5039565;28;20272;-85
2022/03/09 07:14:26;;;;;;;3.15;1.50;;;18.60;43.90;;;;;;5056143;28;20177;-85
2022/03/09 07:16:55;;;;;;;2.67;1.60;;;18.60;43.70;;;;;;5039037;28;20725;-85
2022/03/09 07:19:24;;;;;;;2.17;1.35;;;18.60;43.70;;;;;;5055847;28;20725;-85
2022/03/09 07:21:54;;;;;;;1.90;1.48;;;18.60;43.70;;;;;;5022996;28;20196;-85
2022/03/09 07:24:22;;;;;;;2.97;1.42;;;18.60;43.40;;;;;;5039313;28;20185;-87
2022/03/09 07:26:51;;;;;;;1.92;1.40;;;18.60;43.60;;;;;;5055204;28;20185;-86
2022/03/09 07:29:21;;;;;;;3.70;1.45;;;18.60;43.40;;;;;;5054699;28;20562;-86
2022/03/09 07:31:50;;;;;;;2.33;1.27;;;18.60;43.50;;;;;;5038109;28;20538;-86
2022/03/09 07:34:16;;;;;;;4.20;1.73;;;18.70;43.40;;;;;;5054505;28;20185;-85
2022/03/09 07:36:44;;;;;;;1.60;1.50;;;18.70;43.20;;;;;;5093614;28;20198;-85
2022/03/09 07:39:09;;;;;;;2.13;1.50;;;18.70;43.00;;;;;;5058150;28;20211;-85
2022/03/09 07:41:39;;;;;;;2.35;1.40;;;18.70;43.00;;;;;;5059662;28;20207;-87
2022/03/09 07:44:10;;;;;;;1.80;1.40;;;18.70;43.10;;;;;;5058571;28;20184;-85
2022/03/09 07:46:36;;;;;;;1.98;1.38;;;18.70;42.90;;;;;;5060410;28;20180;-84
2022/03/09 07:49:04;;;;;;;4.97;1.50;;;18.70;42.80;;;;;;5044002;28;20164;-85
2022/03/09 07:51:32;;;;;;;3.83;1.50;;;18.70;43.00;;;;;;5027752;28;20211;-85
2022/03/09 07:53:59;;;;;;;3.17;1.35;;;18.70;43.20;;;;;;5046880;28;20590;-85
2022/03/09 07:57:01;;;;;;;1.83;1.30;;;18.80;42.80;;;;;;5044191;28;20576;-86
2022/03/09 07:59:28;;;;;;;2.92;1.50;;;18.80;42.20;;;;;;5080708;28;20195;-84
2022/03/09 08:01:54;;;;;;;4.80;1.60;;;18.90;42.40;;;;;;5027852;28;20185;-84
2022/03/09 08:04:21;;;;;;;2.03;1.58;;;18.90;42.80;;;;;;5060485;28;20165;-86
2022/03/09 08:06:48;;;;;;;2.50;1.38;;;18.90;43.00;;;;;;5045139;28;20252;-85
2022/03/09 08:09:19;;;;;;;3.70;1.50;;;18.80;43.00;;;;;;5073836;28;20631;-84
2022/03/09 08:11:47;;;;;;;2.80;1.55;;;18.80;42.50;;;;;;5027445;28;20278;-84
2022/03/09 08:14:17;;;;;;;1.98;1.40;;;18.70;42.50;;;;;;5017638;28;20229;-87
2022/03/09 08:16:44;;;;;;;4.45;1.40;;;18.80;42.40;;;;;;5030520;28;20184;-85
2022/03/09 08:19:11;;;;;;;5.18;1.63;;;18.80;42.30;;;;;;5043819;28;20229;-87
2022/03/09 08:21:37;;;;;;;3.17;1.50;;;18.80;42.10;;;;;;5027650;28;20699;-85
2022/03/09 08:24:14;;;;;;;3.58;1.65;;;18.90;42.50;;;;;;5043823;28;20221;-86
2022/03/09 08:26:40;;;;;;;2.15;1.50;;;18.80;42.90;;;;;;5011079;28;20178;-86
2022/03/09 08:29:07;;;;;;;1.98;1.38;;;18.70;42.60;;;;;;5011279;28;20178;-86
2022/03/09 08:31:37;;;;;;;3.67;1.38;;;18.90;43.20;;;;;;5027405;28;20186;-86
2022/03/09 08:34:08;;;;;;;2.20;1.40;;;18.80;42.60;;;;;;5010836;28;20193;-85
2022/03/09 08:36:34;;;;;;;1.50;1.40;;;18.90;42.50;;;;;;5009900;28;20230;-86
2022/03/09 08:39:02;;;;;;;1.48;1.17;;;18.90;42.50;;;;;;5010918;28;20170;-85
2022/03/09 08:41:32;;;;;;;2.55;1.88;;;18.90;42.10;;;;;;5025959;28;20211;-84
2022/03/09 08:43:58;;;;;;;2.08;1.30;;;19.10;41.70;;;;;;5011495;28;20212;-84
2022/03/09 08:46:24;;;;;;;2.95;1.48;;;19.10;42.10;;;;;;5061045;28;20224;-85
2022/03/09 08:48:50;;;;;;;3.42;1.65;;;19.00;41.80;;;;;;5059835;28;20169;-84
2022/03/09 08:51:21;;;;;;;1.90;1.50;;;19.10;41.50;;;;;;5076985;28;20239;-83
2022/03/09 08:53:47;;;;;;;1.50;1.40;;;19.20;41.10;;;;;;5043344;28;20273;-85
2022/03/09 08:56:13;;;;;;;1.98;1.55;;;19.30;41.50;;;;;;5080161;28;20161;-84
2022/03/09 08:58:43;;;;;;;2.15;1.30;;;19.20;41.40;;;;;;5062931;28;20216;-85
2022/03/09 09:01:10;;;;;;;2.17;1.50;;;19.20;41.50;;;;;;5061593;28;20197;-86
2022/03/09 09:03:36;;;;;;;5.38;1.48;;;19.30;41.80;;;;;;5060623;28;20181;-86
2022/03/09 09:06:01;;;;;;;3.33;1.30;;;19.20;41.90;;;;;;5062554;28;20162;-86
2022/03/09 09:08:27;;;;;;;5.05;1.52;;;19.30;41.80;;;;;;5060841;28;20270;-85
2022/03/09 09:10:53;;;;;;;4.55;1.40;;;19.20;41.70;;;;;;5058594;28;20205;-86
2022/03/09 09:13:19;;;;;;;3.60;1.45;;;19.30;41.60;;;;;;5075414;28;20229;-86
2022/03/09 09:15:45;;;;;;;6.80;1.50;;;19.30;41.70;;;;;;5060138;28;20154;-86
2022/03/09 09:18:12;;;;;;;7.35;1.73;;;19.40;42.30;;;;;;5076424;28;20570;-88
2022/03/09 09:20:42;;;;;;;4.03;1.65;;;19.40;41.80;;;;;;5074178;28;20498;-84
2022/03/09 09:23:12;;;;;;;5.38;1.60;;;19.30;41.70;;;;;;5058508;28;20209;-85
2022/03/09 09:25:42;;;;;;;8.07;1.60;;;19.30;42.20;;;;;;5058087;28;20190;-84
2022/03/09 09:28:11;;;;;;;5.45;1.45;;;19.20;42.00;;;;;;5040867;28;20188;-85
2022/03/09 09:30:41;;;;;;;6.25;1.60;;;19.20;42.30;;;;;;5040430;28;20241;-86
2022/03/09 09:33:13;;;;;;;9.75;1.52;;;19.30;41.80;;;;;;5056728;28;20663;-85
2022/03/09 09:35:39;;;;;;;4.72;1.52;;;19.30;42.20;;;;;;5039909;28;20225;-84
2022/03/09 09:38:08;;;;;;;10.63;1.75;;;19.40;41.80;;;;;;5057536;28;20181;-85
2022/03/09 09:40:41;;;;;;;6.05;1.60;;;19.30;42.00;;;;;;5040969;28;20212;-85
2022/03/09 09:43:12;;;;;;;2.50;1.50;;;19.30;41.80;;;;;;5057276;28;20261;-85
2022/03/09 09:45:41;;;;;;;3.38;1.35;;;19.40;41.50;;;;;;5057285;28;20178;-85
2022/03/09 09:48:10;;;;;;;5.93;1.40;;;19.50;41.90;;;;;;5055892;28;20239;-87
2022/03/09 09:50:36;;;;;;;3.53;1.50;;;19.50;41.60;;;;;;5040404;28;20213;-86
2022/03/09 09:53:06;;;;;;;4.00;1.30;;;19.50;41.60;;;;;;5061945;28;20206;-84
2022/03/09 09:55:33;;;;;;;8.40;1.90;;;19.50;41.50;;;;;;5039788;28;20712;-85
2022/03/09 09:58:03;;;;;;;4.30;1.60;;;19.60;41.40;;;;;;5056540;28;20181;-84
2022/03/09 10:00:32;;;;;;;6.22;1.67;;;19.50;41.50;;;;;;5041382;28;20217;-85
2022/03/09 10:03:01;;;;;;;3.85;1.45;;;19.50;41.30;;;;;;5056845;28;20580;-85
2022/03/09 10:05:27;;;;;;;2.40;1.13;;;19.50;41.20;;;;;;5043622;28;20193;-85
2022/03/09 10:08:07;;;;;;;5.90;1.90;;;19.50;41.20;;;;;;5074281;28;20159;-85
2022/03/09 10:10:38;;;;;;;6.30;1.67;;;19.50;41.70;;;;;;5057582;28;20236;-85
2022/03/09 10:13:16;;;;;;;3.97;1.50;;;19.40;42.30;;;;;;5056128;28;20184;-85
2022/03/09 10:15:44;;;;;;;2.55;1.33;;;19.40;41.80;;;;;;5039188;28;20182;-84
2022/03/09 10:18:15;;;;;;;2.45;1.23;;;19.40;41.80;;;;;;5038834;28;20180;-84
2022/03/09 10:20:42;;;;;;;3.25;1.48;;;19.40;41.80;;;;;;5037644;28;20194;-87
2022/03/09 10:23:12;;;;;;;4.45;1.33;;;19.40;41.90;;;;;;5055363;28;20190;-85
2022/03/09 10:25:59;;;;;;;2.50;1.38;;;19.40;41.80;;;;;;5045148;28;20246;-85
2022/03/09 10:28:26;;;;;;;3.92;1.45;;;19.40;42.00;;;;;;5039698;28;20235;-85
2022/03/09 10:30:52;;;;;;;5.07;1.40;;;19.40;41.60;;;;;;5052510;28;20221;-86
2022/03/09 10:33:19;;;;;;;3.33;1.30;;;19.50;41.50;;;;;;5070219;28;20201;-85
2022/03/09 10:36:06;;;;;;;3.88;1.45;;;19.50;41.40;;;;;;5067031;28;20224;-84
2022/03/09 10:38:33;;;;;;;3.25;1.20;;;19.50;41.90;;;;;;5039591;28;20185;-87
2022/03/09 10:41:05;;;;;;;3.72;1.27;;;19.50;41.80;;;;;;5056250;28;20177;-85
2022/03/09 10:43:33;;;;;;;4.35;1.23;;;19.50;41.60;;;;;;5056420;28;20181;-86
2022/03/09 10:46:02;;;;;;;7.13;1.27;;;19.50;41.60;;;;;;5039249;28;20209;-84
2022/03/09 10:48:44;;;;;;;2.75;1.30;;;19.50;41.70;;;;;;5073246;28;20181;-86
2022/03/09 10:51:15;;;;;;;3.35;1.40;;;19.50;41.60;;;;;;5040969;28;20209;-86
2022/03/09 10:53:45;;;;;;;4.07;1.50;;;19.40;42.00;;;;;;5074013;28;20237;-84
2022/03/09 10:56:19;;;;;;;2.33;1.40;;;19.40;41.90;;;;;;5074864;28;20158;-86
2022/03/09 10:58:45;;;;;;;2.28;1.15;;;19.30;42.20;;;;;;5076091;28;20164;-85
2022/03/09 11:01:16;;;;;;;2.72;1.45;;;19.30;42.30;;;;;;5074259;28;20525;-85
2022/03/09 11:03:43;;;;;;;3.45;1.50;;;19.30;42.50;;;;;;5074989;28;20162;-86
2022/03/09 11:06:14;;;;;;;2.70;1.40;;;19.30;42.50;;;;;;5073334;28;20165;-86
2022/03/09 11:08:41;;;;;;;2.33;1.35;;;19.30;42.20;;;;;;5039673;28;20188;-85
2022/03/09 11:11:09;;;;;;;3.05;1.38;;;19.30;42.60;;;;;;5073330;28;20248;-85
2022/03/09 11:13:36;;;;;;;3.47;1.25;;;19.20;42.40;;;;;;5039609;28;20212;-86
2022/03/09 11:16:04;;;;;;;4.63;1.30;;;19.30;42.30;;;;;;5056840;28;20215;-85
2022/03/09 11:18:31;;;;;;;7.32;1.50;;;19.30;42.10;;;;;;5039495;28;20272;-86
2022/03/09 11:21:00;;;;;;;4.25;1.10;;;19.30;42.40;;;;;;5040139;28;20264;-87
2022/03/09 11:23:28;;;;;;;3.33;1.17;;;19.40;42.20;;;;;;5057426;28;20174;-86
2022/03/09 11:26:01;;;;;;;1.98;1.20;;;19.40;41.80;;;;;;5042253;28;20516;-85
2022/03/09 11:28:31;;;;;;;5.72;1.52;;;19.50;41.60;;;;;;5024566;28;20557;-89
2022/03/09 11:31:04;;;;;;;1.92;1.30;;;19.50;41.60;;;;;;5040794;28;20265;-86
2022/03/09 11:33:50;;;;;;;2.20;1.40;;;19.50;41.70;;;;;;5060054;28;20181;-89
2022/03/09 11:36:34;;;;;;;5.15;1.00;;;19.50;41.80;;;;;;5082000;28;20225;-87
2022/03/09 11:39:19;;;;;;;3.53;1.13;;;19.50;41.50;;;;;;5083341;28;20161;-84
2022/03/09 11:41:45;;;;;;;1.77;1.38;;;19.40;41.90;;;;;;5066665;28;20635;-84
2022/03/09 11:44:30;;;;;;;2.95;1.20;;;19.40;42.10;;;;;;5062585;28;20169;-87
2022/03/09 11:47:07;;;;;;;5.28;1.30;;;19.40;42.30;;;;;;5080813;28;20681;-83
2022/03/09 11:49:53;;;;;;;4.13;1.55;;;19.30;42.70;;;;;;5029904;28;20675;-88
2022/03/09 11:52:22;;;;;;;3.50;1.10;;;19.30;42.50;;;;;;5062755;28;20176;-87
2022/03/09 11:54:55;;;;;;;3.22;1.25;;;19.30;42.20;;;;;;5081655;28;20237;-85
2022/03/09 11:57:23;;;;;;;6.93;1.50;;;19.40;42.20;;;;;;5082568;28;20164;-86
2022/03/09 12:00:07;;;;;;;7.68;1.40;;;19.30;42.50;;;;;;5079740;28;20196;-88
2022/03/09 12:02:41;;;;;;;5.85;1.55;;;19.30;42.10;;;;;;5078501;28;20159;-85
2022/03/09 12:05:08;;;;;;;4.40;1.40;;;19.30;42.80;;;;;;5042756;28;20204;-87
2022/03/09 12:07:54;;;;;;;1.73;1.10;;;19.30;42.30;;;;;;5060321;28;20173;-86
2022/03/09 12:10:22;;;;;;;2.47;0.95;;;19.30;42.20;;;;;;5059331;28;20217;-86
2022/03/09 12:13:31;;;;;;;6.63;1.58;;;19.20;42.10;;;;;;5081788;28;20154;-90
2022/03/09 12:16:14;;;;;;;5.85;1.23;;;19.30;42.10;;;;;;5078531;28;20179;-90
2022/03/09 12:19:05;;;;;;;2.97;1.35;;;19.30;42.40;;;;;;5040507;28;20181;-86
2022/03/09 12:21:53;;;;;;;3.45;1.30;;;19.30;42.20;;;;;;5025202;28;20217;-83
2022/03/09 12:24:22;;;;;;;3.40;1.23;;;19.40;42.30;;;;;;5074831;28;20198;-85
2022/03/09 12:26:54;;;;;;;10.68;1.88;;;19.30;42.40;;;;;;5059148;28;20204;-85
2022/03/09 12:29:37;;;;;;;5.45;1.80;;;19.30;42.80;;;;;;5039164;28;20189;-84
2022/03/09 12:32:07;;;;;;;5.80;1.38;;;19.20;42.80;;;;;;5056219;28;20640;-84
2022/03/09 12:34:36;;;;;;;4.18;1.25;;;19.30;42.50;;;;;;5073275;28;20165;-85
2022/03/09 12:37:05;;;;;;;4.68;1.73;;;19.30;42.30;;;;;;5057409;28;20208;-86
2022/03/09 12:39:36;;;;;;;4.65;1.40;;;19.20;42.40;;;;;;5024562;28;20632;-84
2022/03/09 12:42:07;;;;;;;10.18;1.50;;;19.30;42.30;;;;;;5040216;28;20277;-84
2022/03/09 12:44:37;;;;;;;5.22;1.48;;;19.30;42.50;;;;;;5022818;28;20292;-84
2022/03/09 12:47:05;;;;;;;7.40;1.40;;;19.30;42.10;;;;;;5023407;28;20177;-83
2022/03/09 12:49:36;;;;;;;6.47;1.50;;;19.40;42.00;;;;;;5038090;28;20212;-85
2022/03/09 12:52:18;;;;;;;5.28;1.25;;;19.40;42.20;;;;;;5056237;28;20179;-85
2022/03/09 12:54:48;;;;;;;9.57;1.70;;;19.50;42.10;;;;;;5077422;28;20157;-83